createdAt,value
2016-11-23T00:02:06.823Z,99.99
2016-11-23T00:07:03.227Z,99.99
2016-11-23T00:11:59.739Z,99.99
2016-11-23T00:16:56.237Z,99.99
2016-11-23T00:21:52.727Z,99.99
2016-11-23T00:26:49.344Z,99.99
2016-11-23T00:31:45.731Z,99.99
2016-11-23T00:36:42.358Z,99.99
2016-11-23T00:41:38.817Z,99.99
2016-11-23T00:46:35.482Z,99.99
2016-11-23T00:51:32.695Z,99.99
2016-11-23T00:56:29.196Z,99.99
2016-11-23T01:01:25.729Z,99.99
2016-11-23T01:06:22.144Z,99.99
2016-11-23T01:11:18.883Z,99.99
2016-11-23T01:16:15.554Z,99.99
2016-11-23T01:21:11.992Z,99.99
2016-11-23T01:26:08.073Z,99.99
2016-11-23T01:31:04.543Z,99.99
2016-11-23T01:36:00.904Z,99.99
2016-11-23T01:40:57.349Z,99.99
2016-11-23T01:45:53.829Z,99.99
2016-11-23T01:50:50.178Z,99.99
2016-11-23T01:55:46.665Z,99.99
2016-11-23T02:00:43.363Z,99.99
2016-11-23T02:05:39.796Z,99.99
2016-11-23T02:10:36.474Z,99.99
2016-11-23T02:15:33.061Z,99.99
2016-11-23T02:20:29.641Z,99.99
2016-11-23T02:25:26.574Z,99.99
2016-11-23T02:30:22.972Z,99.99
2016-11-23T02:35:19.372Z,99.99
2016-11-23T02:40:16.173Z,99.99
2016-11-23T02:45:12.718Z,99.99
2016-11-23T02:50:09.669Z,99.99
2016-11-23T02:55:07.415Z,99.99
2016-11-23T03:00:03.529Z,99.99
2016-11-23T03:04:59.988Z,99.99
2016-11-23T03:09:56.411Z,99.99
2016-11-23T03:14:52.907Z,99.99
2016-11-23T03:19:49.352Z,99.99
2016-11-23T03:24:45.386Z,99.99
2016-11-23T03:29:42.265Z,99.99
2016-11-23T03:34:38.762Z,99.99
2016-11-23T03:39:35.179Z,99.99
2016-11-23T03:44:31.549Z,99.99
2016-11-23T03:49:28.145Z,99.99
2016-11-23T03:54:24.695Z,99.99
2016-11-23T03:59:21.364Z,99.99
2016-11-23T04:04:17.684Z,99.99
2016-11-23T04:09:14.708Z,99.99
2016-11-23T04:14:11.096Z,99.99
2016-11-23T04:19:07.433Z,99.99
2016-11-23T04:24:04.586Z,99.99
2016-11-23T04:29:00.867Z,99.99
2016-11-23T04:33:57.351Z,99.99
2016-11-23T04:38:53.909Z,99.99
2016-11-23T04:48:50.396Z,99.99
2016-11-23T04:53:46.907Z,99.99
2016-11-23T04:58:43.764Z,99.99
2016-11-23T05:03:39.956Z,99.99
2016-11-23T05:08:36.255Z,99.99
2016-11-23T05:13:32.735Z,99.99
2016-11-23T05:18:29.123Z,99.99
2016-11-23T05:23:25.507Z,99.99
2016-11-23T05:28:21.949Z,99.99
2016-11-23T05:33:18.344Z,99.99
2016-11-23T05:38:14.678Z,99.99
2016-11-23T05:43:11.159Z,99.99
2016-11-23T05:48:07.638Z,99.99
2016-11-23T05:53:04.125Z,99.99
2016-11-23T05:58:00.582Z,99.99
2016-11-23T06:02:57.155Z,99.99
2016-11-23T06:07:53.622Z,99.99
2016-11-23T06:12:50.273Z,99.99
2016-11-23T06:17:46.667Z,99.99
2016-11-23T06:22:43.052Z,99.99
2016-11-23T06:27:39.122Z,99.99
2016-11-23T06:32:35.668Z,99.99
2016-11-23T06:37:32.295Z,99.99
2016-11-23T06:42:28.709Z,99.99
2016-11-23T06:47:25.282Z,99.99
2016-11-23T06:52:21.581Z,99.99
2016-11-23T06:57:18.294Z,99.99
2016-11-23T07:02:14.635Z,99.99
2016-11-23T07:07:11.179Z,99.99
2016-11-23T07:12:07.646Z,99.99
2016-11-23T07:17:04.211Z,99.99
2016-11-23T07:22:00.742Z,99.99
2016-11-23T07:26:58.229Z,99.99
2016-11-23T07:31:54.546Z,99.99
2016-11-23T07:36:51.129Z,99.99
2016-11-23T07:41:47.730Z,99.99
2016-11-23T07:46:44.249Z,99.99
2016-11-23T07:51:40.853Z,99.99
2016-11-23T07:56:37.477Z,99.99
2016-11-23T08:01:33.591Z,99.99
2016-11-23T08:06:30.602Z,99.99
2016-11-23T08:11:27.015Z,99.99
2016-11-23T08:16:23.707Z,99.99
2016-11-23T08:21:20.269Z,99.99
2016-11-23T08:26:17.244Z,99.99
2016-11-23T08:31:13.732Z,99.99
2016-11-23T08:36:10.138Z,99.99
2016-11-23T08:41:06.711Z,99.99
2016-11-23T08:46:03.029Z,99.99
2016-11-23T08:50:59.671Z,99.99
2016-11-23T08:55:56.173Z,99.99
2016-11-23T09:00:53.263Z,99.99
2016-11-23T09:05:49.788Z,99.99
2016-11-23T09:10:46.363Z,99.99
2016-11-23T09:15:42.963Z,99.99
2016-11-23T09:20:39.524Z,99.99
2016-11-23T09:25:36.108Z,99.99
2016-11-23T09:30:32.548Z,99.99
2016-11-23T09:35:29.520Z,99.99
2016-11-23T09:40:26.222Z,99.99
2016-11-23T09:45:25.451Z,99.99
2016-11-23T09:50:21.537Z,99.99
2016-11-23T09:55:17.807Z,99.99
2016-11-23T10:00:14.181Z,99.99
2016-11-23T10:05:10.848Z,99.99
2016-11-23T10:10:09.708Z,99.99
2016-11-23T10:15:06.300Z,99.18
2016-11-23T10:20:02.873Z,99.99
2016-11-23T10:24:59.265Z,99.99
2016-11-23T10:29:56.301Z,99.08
2016-11-23T10:34:53.021Z,98.56
2016-11-23T10:39:50.372Z,96.41
2016-11-23T10:44:47.233Z,95.94
2016-11-23T10:49:44.315Z,96.13
2016-11-23T10:54:40.961Z,95.75
2016-11-23T10:59:37.701Z,96.03
2016-11-23T11:04:34.674Z,94.56
2016-11-23T11:09:31.219Z,95.51
2016-11-23T11:14:28.098Z,93.98
2016-11-23T11:19:24.383Z,95.08
2016-11-23T11:24:20.996Z,94.17
2016-11-23T11:29:17.731Z,93.51
2016-11-23T11:34:13.953Z,94.60
2016-11-23T11:39:11.056Z,94.98
2016-11-23T11:44:08.081Z,94.22
2016-11-23T11:49:04.119Z,94.79
2016-11-23T11:54:00.950Z,94.79
2016-11-23T11:58:57.395Z,95.08
2016-11-23T12:03:53.634Z,94.89
2016-11-23T12:08:50.212Z,94.27
2016-11-23T12:13:47.115Z,94.17
2016-11-23T12:18:43.910Z,93.22
2016-11-23T12:23:40.640Z,93.31
2016-11-23T12:28:37.066Z,94.60
2016-11-23T12:33:33.498Z,93.17
2016-11-23T12:38:31.064Z,94.32
2016-11-23T12:43:27.222Z,93.93
2016-11-23T12:48:24.360Z,94.12
2016-11-23T12:53:20.623Z,94.07
2016-11-23T12:58:17.332Z,93.70
2016-11-23T13:03:13.837Z,94.27
2016-11-23T13:08:10.353Z,94.03
2016-11-23T13:13:06.769Z,93.84
2016-11-23T13:18:03.585Z,93.41
2016-11-23T13:23:02.755Z,93.51
2016-11-23T13:27:58.716Z,93.22
2016-11-23T13:32:55.610Z,93.12
2016-11-23T13:37:52.083Z,92.46
2016-11-23T13:42:48.674Z,92.74
2016-11-23T13:47:45.190Z,93.12
2016-11-23T13:52:41.603Z,93.31
2016-11-23T13:57:38.189Z,93.31
2016-11-23T14:02:34.710Z,94.07
2016-11-23T14:07:30.920Z,93.51
2016-11-23T14:12:27.468Z,93.12
2016-11-23T14:17:24.049Z,94.07
2016-11-23T14:22:21.036Z,93.98
2016-11-23T14:27:17.308Z,93.98
2016-11-23T14:32:13.808Z,94.89
2016-11-23T14:37:09.956Z,94.98
2016-11-23T14:42:06.163Z,94.79
2016-11-23T14:47:02.836Z,95.46
2016-11-23T14:51:59.569Z,95.56
2016-11-23T14:56:56.154Z,95.46
2016-11-23T15:01:52.450Z,96.03
2016-11-23T15:06:49.389Z,96.89
2016-11-23T15:11:45.749Z,97.41
2016-11-23T15:16:42.467Z,98.75
2016-11-23T15:21:38.530Z,99.41
2016-11-23T15:26:34.998Z,99.99
2016-11-23T15:31:31.363Z,99.99
2016-11-23T15:36:28.228Z,99.99
2016-11-23T15:41:24.578Z,99.99
2016-11-23T15:46:21.259Z,99.99
2016-11-23T15:51:18.663Z,99.99
2016-11-23T15:56:15.671Z,99.99
2016-11-23T16:01:13.304Z,99.99
2016-11-23T16:06:10.356Z,99.99
2016-11-23T16:11:06.926Z,99.99
2016-11-23T16:16:06.584Z,99.99
2016-11-23T16:21:02.576Z,99.99
2016-11-23T16:25:59.109Z,99.99
2016-11-23T16:30:55.638Z,99.99
2016-11-23T16:35:51.860Z,99.99
2016-11-23T16:40:48.676Z,99.99
2016-11-23T16:45:46.260Z,99.99
2016-11-23T16:50:42.494Z,99.99
2016-11-23T16:55:38.909Z,99.99
2016-11-23T17:00:35.362Z,99.99
2016-11-23T17:05:31.719Z,99.99
2016-11-23T17:10:28.264Z,99.99
2016-11-23T17:15:24.698Z,99.99
2016-11-23T17:20:20.868Z,99.99
2016-11-23T17:25:17.132Z,99.99
2016-11-23T17:30:13.983Z,99.99
2016-11-23T17:35:10.517Z,99.99
2016-11-23T17:40:07.589Z,99.99
2016-11-23T17:45:05.032Z,99.99
2016-11-23T17:50:01.558Z,99.99
2016-11-23T17:55:00.509Z,99.99
2016-11-23T17:59:56.188Z,99.99
2016-11-23T18:04:52.530Z,99.99
2016-11-23T18:09:49.274Z,99.99
2016-11-23T18:14:45.769Z,99.99
2016-11-23T18:19:42.109Z,99.99
2016-11-23T18:24:39.236Z,99.99
2016-11-23T18:29:35.778Z,99.99
2016-11-23T18:34:32.421Z,99.99
2016-11-23T18:39:28.766Z,99.99
2016-11-23T18:44:25.256Z,99.99
2016-11-23T18:49:21.641Z,99.99
2016-11-23T18:54:18.121Z,99.99
2016-11-23T18:59:14.782Z,99.99
2016-11-23T19:04:11.383Z,99.99
2016-11-23T19:09:08.080Z,99.99
2016-11-23T19:14:04.279Z,99.99
2016-11-23T19:19:00.616Z,99.99
2016-11-23T19:23:57.117Z,99.99
2016-11-23T19:28:53.749Z,99.99
2016-11-23T19:33:50.192Z,99.99
2016-11-23T19:38:46.478Z,99.99
2016-11-23T19:43:42.590Z,99.99
2016-11-23T19:48:39.282Z,99.99
2016-11-23T19:53:35.822Z,99.99
2016-11-23T19:58:32.199Z,99.99
2016-11-23T20:03:28.573Z,99.99
2016-11-23T20:08:25.331Z,99.99
2016-11-23T20:13:22.391Z,99.99
2016-11-23T20:18:18.823Z,99.99
2016-11-23T20:23:15.248Z,99.99
2016-11-23T20:28:11.331Z,99.99
2016-11-23T20:33:08.132Z,99.99
2016-11-23T20:38:04.603Z,99.99
2016-11-23T20:43:01.130Z,99.99
2016-11-23T20:47:57.498Z,99.99
2016-11-23T20:52:53.949Z,99.99
2016-11-23T20:57:50.308Z,99.99
2016-11-23T21:02:46.900Z,99.99
2016-11-23T21:07:43.509Z,99.99
2016-11-23T21:12:39.882Z,99.99
2016-11-23T21:17:36.426Z,99.99
2016-11-23T21:22:33.138Z,99.99
2016-11-23T21:27:29.613Z,99.99
2016-11-23T21:32:25.701Z,99.99
2016-11-23T21:37:21.909Z,99.99
2016-11-23T21:42:18.419Z,99.99
2016-11-23T21:47:15.775Z,99.99
2016-11-23T21:52:12.203Z,99.99
2016-11-23T21:57:09.292Z,99.99
2016-11-23T22:02:06.041Z,99.99
2016-11-23T22:07:02.467Z,99.99
2016-11-23T22:11:58.915Z,99.99
2016-11-23T22:16:56.458Z,99.99
2016-11-23T22:21:52.764Z,99.99
2016-11-23T22:26:50.291Z,99.99
2016-11-23T22:31:46.362Z,99.99
2016-11-23T22:36:42.817Z,99.99
2016-11-23T22:41:39.431Z,99.99
2016-11-23T22:46:35.873Z,99.99
2016-11-23T22:51:32.493Z,99.99
2016-11-23T22:56:29.135Z,99.99
2016-11-23T23:01:27.043Z,99.99
2016-11-23T23:06:22.929Z,99.99
2016-11-23T23:11:19.342Z,99.99
2016-11-23T23:16:16.782Z,99.99
2016-11-23T23:21:13.461Z,99.99
2016-11-23T23:26:09.876Z,99.99
2016-11-23T23:31:06.593Z,99.99
2016-11-23T23:36:03.195Z,99.99
2016-11-23T23:41:00.800Z,99.99
2016-11-23T23:45:57.016Z,99.99
2016-11-23T23:50:53.528Z,99.99
2016-11-23T23:55:49.857Z,99.99
